createdAt,value
2022-07-30T00:01:45.481Z,22.10
2022-07-30T00:03:48.279Z,21.80
2022-07-30T00:05:51.173Z,21.90
2022-07-30T00:07:53.955Z,21.80
2022-07-30T00:09:56.725Z,21.60
2022-07-30T00:11:59.581Z,21.50
2022-07-30T00:14:04.656Z,21.70
2022-07-30T00:16:08.846Z,21.60
2022-07-30T00:18:11.976Z,21.70
2022-07-30T00:20:16.074Z,21.80
2022-07-30T00:22:19.019Z,21.70
2022-07-30T00:24:21.943Z,21.80
2022-07-30T00:26:24.741Z,21.80
2022-07-30T00:28:27.546Z,21.70
2022-07-30T00:30:30.326Z,21.80
2022-07-30T00:32:34.420Z,21.90
2022-07-30T00:34:37.157Z,22.00
2022-07-30T00:36:40.231Z,21.90
2022-07-30T00:38:42.998Z,22.00
2022-07-30T00:40:48.608Z,21.80
2022-07-30T00:42:51.375Z,21.70
2022-07-30T00:44:54.541Z,21.80
2022-07-30T00:46:57.922Z,22.00
2022-07-30T00:49:02.628Z,22.00
2022-07-30T00:51:05.574Z,22.10
2022-07-30T00:53:09.487Z,22.10
2022-07-30T00:55:14.502Z,22.20
2022-07-30T00:57:17.261Z,22.20
2022-07-30T00:59:20.113Z,22.20
2022-07-30T01:01:22.895Z,22.20
2022-07-30T01:03:25.713Z,22.20
2022-07-30T01:05:29.796Z,22.20
2022-07-30T01:07:32.624Z,22.20
2022-07-30T01:09:35.345Z,22.20
2022-07-30T01:11:39.898Z,22.20
2022-07-30T01:13:42.811Z,22.30
2022-07-30T01:15:45.778Z,22.40
2022-07-30T01:17:52.858Z,22.40
2022-07-30T01:20:00.485Z,22.40
2022-07-30T01:22:13.439Z,22.40
2022-07-30T01:24:26.702Z,22.40
2022-07-30T01:26:31.378Z,22.40
2022-07-30T01:28:37.520Z,22.50
2022-07-30T01:30:44.142Z,22.40
2022-07-30T01:32:48.639Z,22.40
2022-07-30T01:34:53.288Z,22.40
2022-07-30T01:36:58.112Z,22.40
2022-07-30T01:39:02.008Z,22.40
2022-07-30T01:41:07.017Z,22.30
2022-07-30T01:43:12.044Z,22.30
2022-07-30T01:45:15.519Z,22.30
2022-07-30T01:47:20.694Z,22.30
2022-07-30T01:49:25.085Z,22.30
2022-07-30T01:51:37.533Z,22.20
2022-07-30T01:53:42.322Z,22.10
2022-07-30T01:55:46.132Z,22.10
2022-07-30T01:57:50.070Z,22.00
2022-07-30T02:00:00.002Z,21.80
2022-07-30T02:02:03.069Z,21.60
2022-07-30T02:04:06.018Z,21.60
2022-07-30T02:06:14.441Z,21.50
2022-07-30T02:08:23.113Z,21.50
2022-07-30T02:10:32.389Z,21.60
2022-07-30T02:12:36.527Z,21.70
2022-07-30T02:14:45.492Z,21.60
2022-07-30T02:16:54.246Z,21.70
2022-07-30T02:19:07.544Z,21.60
2022-07-30T02:21:13.298Z,21.60
2022-07-30T02:23:18.085Z,21.50
2022-07-30T02:25:22.483Z,21.50
2022-07-30T02:27:29.327Z,21.60
2022-07-30T02:29:35.557Z,21.60
2022-07-30T02:31:41.283Z,21.70
2022-07-30T02:33:48.624Z,21.60
2022-07-30T02:35:53.150Z,21.50
2022-07-30T02:37:56.051Z,21.50
2022-07-30T02:39:59.704Z,21.60
2022-07-30T02:42:04.589Z,21.50
2022-07-30T02:44:07.764Z,21.60
2022-07-30T02:46:12.882Z,21.60
2022-07-30T02:48:34.406Z,21.60
2022-07-30T02:50:40.914Z,21.60
2022-07-30T02:52:44.714Z,21.70
2022-07-30T02:54:50.195Z,21.80
2022-07-30T02:56:53.985Z,21.80
2022-07-30T02:58:58.566Z,21.90
2022-07-30T03:01:03.231Z,21.90
2022-07-30T03:03:07.197Z,21.90
2022-07-30T03:05:10.913Z,21.90
2022-07-30T03:07:16.047Z,21.90
2022-07-30T03:09:19.436Z,21.90
2022-07-30T03:11:23.224Z,21.80
2022-07-30T03:13:26.548Z,21.70
2022-07-30T03:15:30.576Z,21.70
2022-07-30T03:17:45.329Z,21.70
2022-07-30T03:19:50.372Z,21.80
2022-07-30T03:21:54.127Z,21.70
2022-07-30T03:24:03.232Z,21.70
2022-07-30T03:26:08.553Z,21.80
2022-07-30T03:28:12.787Z,21.50
2022-07-30T03:30:15.706Z,21.50
2022-07-30T03:32:18.814Z,21.30
2022-07-30T03:34:23.524Z,21.10
2022-07-30T03:36:27.533Z,21.10
2022-07-30T03:38:31.418Z,21.30
2022-07-30T03:40:35.763Z,21.20
2022-07-30T03:42:39.778Z,21.00
2022-07-30T03:44:45.724Z,20.80
2022-07-30T03:46:50.717Z,20.80
2022-07-30T03:48:54.737Z,20.60
2022-07-30T03:50:58.508Z,20.60
2022-07-30T03:53:02.189Z,20.50
2022-07-30T03:55:07.805Z,20.70
2022-07-30T03:57:12.002Z,20.80
2022-07-30T03:59:20.556Z,20.60
2022-07-30T04:01:25.910Z,20.60
2022-07-30T04:03:31.224Z,20.80
2022-07-30T04:05:41.483Z,20.80
2022-07-30T04:07:45.059Z,20.80
2022-07-30T04:09:48.325Z,20.80
2022-07-30T04:11:51.275Z,20.90
2022-07-30T04:13:55.367Z,20.90
2022-07-30T04:16:39.166Z,20.90
2022-07-30T04:18:37.008Z,20.80
2022-07-30T04:20:44.391Z,20.80
2022-07-30T04:22:48.453Z,20.90
2022-07-30T04:24:52.507Z,21.00
2022-07-30T04:26:55.836Z,21.00
2022-07-30T04:29:00.846Z,21.10
2022-07-30T04:31:03.954Z,21.20
2022-07-30T04:33:06.888Z,21.30
2022-07-30T04:35:10.103Z,21.30
2022-07-30T04:37:12.852Z,21.40
2022-07-30T04:39:15.900Z,21.40
2022-07-30T04:41:18.716Z,21.40
2022-07-30T04:43:21.436Z,21.40
2022-07-30T04:45:25.738Z,21.50
2022-07-30T04:47:28.566Z,21.50
2022-07-30T04:49:32.125Z,21.50
2022-07-30T04:51:37.727Z,21.50
2022-07-30T04:53:41.214Z,21.50
2022-07-30T04:55:47.780Z,21.50
2022-07-30T04:57:53.277Z,21.60
2022-07-30T04:59:56.111Z,21.70
2022-07-30T05:02:01.154Z,21.70
2022-07-30T05:04:05.677Z,21.70
2022-07-30T05:06:09.314Z,21.70
2022-07-30T05:08:14.084Z,21.80
2022-07-30T05:10:19.090Z,21.70
2022-07-30T05:12:21.902Z,21.70
2022-07-30T05:14:25.465Z,21.70
2022-07-30T05:16:29.648Z,21.70
2022-07-30T05:18:33.854Z,21.60
2022-07-30T05:20:36.830Z,21.60
2022-07-30T05:22:39.611Z,21.50
2022-07-30T05:24:45.669Z,21.40
2022-07-30T05:26:48.656Z,21.20
2022-07-30T05:28:55.282Z,21.10
2022-07-30T05:30:59.632Z,21.10
2022-07-30T05:33:15.515Z,21.00
2022-07-30T05:35:20.308Z,20.90
2022-07-30T05:37:23.057Z,20.90
2022-07-30T05:39:25.846Z,21.00
2022-07-30T05:41:31.640Z,21.30
2022-07-30T05:43:35.899Z,21.30
2022-07-30T05:45:38.653Z,21.30
2022-07-30T05:47:41.385Z,21.20
2022-07-30T05:49:44.147Z,21.20
2022-07-30T05:51:51.564Z,21.10
2022-07-30T05:53:54.309Z,21.00
2022-07-30T05:55:57.130Z,20.90
2022-07-30T05:57:59.884Z,20.80
2022-07-30T06:00:03.086Z,20.90
2022-07-30T06:02:06.808Z,20.90
2022-07-30T06:04:09.706Z,20.90
2022-07-30T06:06:13.007Z,20.90
2022-07-30T06:08:17.083Z,21.00
2022-07-30T06:10:19.837Z,20.90
2022-07-30T06:12:22.558Z,20.80
2022-07-30T06:14:25.337Z,20.80
2022-07-30T06:16:28.248Z,20.90
2022-07-30T06:18:31.207Z,21.00
2022-07-30T06:20:34.016Z,21.00
2022-07-30T06:22:36.756Z,21.00
2022-07-30T06:24:40.858Z,20.90
2022-07-30T06:26:44.324Z,20.90
2022-07-30T06:28:47.116Z,20.90
2022-07-30T06:30:49.929Z,21.10
2022-07-30T06:32:52.715Z,21.10
2022-07-30T06:35:03.944Z,21.10
2022-07-30T06:37:07.422Z,21.10
2022-07-30T06:39:10.186Z,21.10
2022-07-30T06:41:15.778Z,20.60
2022-07-30T06:43:19.551Z,20.80
2022-07-30T06:45:22.643Z,20.80
2022-07-30T06:47:29.129Z,20.70
2022-07-30T06:49:33.003Z,20.80
2022-07-30T06:51:35.876Z,20.90
2022-07-30T06:53:42.402Z,21.00
2022-07-30T06:55:46.003Z,21.10
2022-07-30T06:57:50.353Z,21.10
2022-07-30T06:59:56.581Z,20.90
2022-07-30T07:02:00.486Z,21.00
2022-07-30T07:04:03.817Z,21.20
2022-07-30T07:06:06.902Z,21.30
2022-07-30T07:08:10.042Z,21.30
2022-07-30T07:10:13.132Z,21.50
2022-07-30T07:12:16.178Z,21.50
2022-07-30T07:14:20.425Z,21.60
2022-07-30T07:16:25.601Z,21.60
2022-07-30T07:18:31.183Z,21.60
2022-07-30T07:20:34.479Z,21.60
2022-07-30T07:22:37.576Z,21.10
2022-07-30T07:24:40.436Z,21.40
2022-07-30T07:26:43.361Z,21.40
2022-07-30T07:28:46.545Z,21.50
2022-07-30T07:30:50.982Z,21.60
2022-07-30T07:32:53.899Z,21.70
2022-07-30T07:34:57.948Z,21.70
2022-07-30T07:37:01.037Z,21.80
2022-07-30T07:39:09.649Z,21.80
2022-07-30T07:41:15.814Z,22.00
2022-07-30T07:43:18.762Z,22.00
2022-07-30T07:45:21.881Z,22.10
2022-07-30T07:47:26.251Z,22.20
2022-07-30T07:49:32.027Z,22.20
2022-07-30T07:51:48.398Z,22.30
2022-07-30T07:54:18.636Z,22.30
2022-07-30T07:56:14.588Z,22.30
2022-07-30T07:58:25.542Z,22.40
2022-07-30T08:00:30.162Z,22.40
2022-07-30T08:02:34.469Z,22.50
2022-07-30T08:04:37.773Z,22.60
2022-07-30T08:06:40.683Z,22.40
2022-07-30T08:08:46.285Z,22.40
2022-07-30T08:10:49.215Z,22.30
2022-07-30T08:12:52.162Z,22.40
2022-07-30T08:14:54.998Z,22.60
2022-07-30T08:16:58.069Z,22.60
2022-07-30T08:19:02.629Z,22.50
2022-07-30T08:21:05.743Z,22.60
2022-07-30T08:23:08.794Z,22.40
2022-07-30T08:25:11.839Z,22.50
2022-07-30T08:27:26.274Z,22.50
2022-07-30T08:29:30.111Z,22.50
2022-07-30T08:31:33.320Z,22.50
2022-07-30T08:33:36.381Z,22.40
2022-07-30T08:35:41.676Z,22.40
2022-07-30T08:37:57.906Z,22.60
2022-07-30T08:40:00.779Z,22.50
2022-07-30T08:42:05.218Z,22.70
2022-07-30T08:44:11.811Z,22.70
2022-07-30T08:46:18.800Z,22.60
2022-07-30T08:48:22.582Z,22.70
2022-07-30T08:50:25.842Z,22.90
2022-07-30T08:52:30.463Z,23.10
2022-07-30T08:54:33.932Z,23.30
2022-07-30T08:56:36.897Z,23.40
2022-07-30T08:58:39.786Z,23.40
2022-07-30T09:00:42.711Z,23.50
2022-07-30T09:02:45.822Z,23.50
2022-07-30T09:04:48.629Z,23.50
2022-07-30T09:06:51.384Z,23.40
2022-07-30T09:08:55.587Z,23.40
2022-07-30T09:10:58.424Z,23.40
2022-07-30T09:13:01.201Z,23.50
2022-07-30T09:15:07.169Z,23.40
2022-07-30T09:17:09.957Z,23.40
2022-07-30T09:19:14.994Z,23.40
2022-07-30T09:21:20.853Z,23.50
2022-07-30T09:23:23.955Z,23.50
2022-07-30T09:25:39.703Z,23.40
2022-07-30T09:27:47.111Z,23.40
2022-07-30T09:29:59.169Z,23.60
2022-07-30T09:32:05.143Z,23.80
2022-07-30T09:34:24.947Z,24.10
2022-07-30T09:36:32.931Z,24.20
2022-07-30T09:38:45.806Z,24.40
2022-07-30T09:40:57.546Z,24.50
2022-07-30T09:43:08.999Z,24.70
2022-07-30T09:45:13.940Z,24.40
2022-07-30T09:47:35.088Z,24.50
2022-07-30T09:49:37.888Z,24.50
2022-07-30T09:51:54.482Z,24.60
2022-07-30T09:54:00.231Z,24.50
2022-07-30T09:56:25.036Z,24.50
2022-07-30T09:58:40.035Z,24.60
2022-07-30T10:00:48.563Z,24.60
2022-07-30T10:02:52.140Z,24.50
2022-07-30T10:04:55.149Z,24.60
2022-07-30T10:06:59.321Z,24.50
2022-07-30T10:09:02.331Z,24.50
2022-07-30T10:11:23.657Z,24.70
2022-07-30T10:13:29.561Z,24.80
2022-07-30T10:15:43.283Z,24.60
2022-07-30T10:17:47.252Z,24.70
2022-07-30T10:19:50.636Z,24.80
2022-07-30T10:21:57.073Z,24.80
2022-07-30T10:24:09.950Z,24.90
2022-07-30T10:26:13.562Z,25.00
2022-07-30T10:28:22.036Z,25.10
2022-07-30T10:30:28.098Z,24.80
2022-07-30T10:32:32.989Z,25.20
2022-07-30T10:34:36.176Z,25.10
2022-07-30T10:36:42.425Z,25.20
2022-07-30T10:38:46.264Z,25.20
2022-07-30T10:41:01.590Z,25.30
2022-07-30T10:43:36.578Z,25.50
2022-07-30T10:45:51.509Z,25.60
2022-07-30T10:47:55.886Z,25.70
2022-07-30T10:50:12.032Z,25.70
2022-07-30T10:52:15.086Z,25.80
2022-07-30T10:54:39.214Z,26.00
2022-07-30T10:56:42.450Z,26.00
2022-07-30T10:59:03.028Z,25.70
2022-07-30T11:01:08.864Z,25.70
2022-07-30T11:03:40.734Z,25.60
2022-07-30T11:05:49.539Z,25.60
2022-07-30T11:07:52.361Z,25.70
2022-07-30T11:10:05.106Z,25.80
2022-07-30T11:12:11.184Z,25.80
2022-07-30T11:14:20.344Z,26.10
2022-07-30T11:16:45.769Z,26.30
2022-07-30T11:21:33.997Z,26.20
2022-07-30T11:23:39.476Z,26.30
2022-07-30T11:25:50.364Z,26.30
2022-07-30T11:27:55.394Z,26.20
2022-07-30T11:29:58.464Z,26.20
2022-07-30T11:32:33.460Z,26.10
2022-07-30T11:34:36.404Z,26.20
2022-07-30T11:37:19.265Z,26.40
2022-07-30T11:39:33.322Z,26.50
2022-07-30T11:41:41.799Z,26.30
2022-07-30T11:43:44.949Z,26.30
2022-07-30T11:45:48.846Z,26.60
2022-07-30T11:47:55.070Z,26.50
2022-07-30T11:49:58.652Z,26.70
2022-07-30T11:52:01.999Z,26.80
2022-07-30T11:54:06.410Z,26.30
2022-07-30T11:56:10.421Z,26.50
2022-07-30T11:58:28.810Z,26.50
2022-07-30T12:00:36.903Z,26.60
2022-07-30T12:02:40.321Z,26.90
2022-07-30T12:04:45.971Z,27.00
2022-07-30T12:06:49.630Z,27.10
2022-07-30T12:08:58.491Z,26.90
2022-07-30T12:11:03.172Z,26.80
2022-07-30T12:13:10.489Z,26.80
2022-07-30T12:15:29.804Z,27.00
2022-07-30T12:17:42.538Z,27.00
2022-07-30T12:19:48.804Z,26.40
2022-07-30T12:21:53.543Z,27.00
2022-07-30T12:23:58.238Z,27.20
2022-07-30T12:26:01.025Z,27.30
2022-07-30T12:28:03.941Z,27.30
2022-07-30T12:30:08.954Z,27.40
2022-07-30T12:32:12.084Z,27.20
2022-07-30T12:34:21.659Z,27.10
2022-07-30T12:36:31.711Z,27.40
2022-07-30T12:38:45.124Z,27.40
2022-07-30T12:40:56.056Z,27.20
2022-07-30T12:42:58.852Z,27.20
2022-07-30T12:45:01.656Z,27.10
2022-07-30T12:47:05.902Z,26.80
2022-07-30T12:49:16.672Z,26.90
2022-07-30T12:51:25.872Z,26.80
2022-07-30T12:53:31.780Z,26.80
2022-07-30T12:55:36.694Z,27.20
2022-07-30T12:57:56.654Z,27.40
2022-07-30T13:00:03.996Z,27.60
2022-07-30T13:02:06.857Z,27.50
2022-07-30T13:04:10.498Z,27.60
2022-07-30T13:06:18.749Z,27.70
2022-07-30T13:08:22.528Z,28.00
2022-07-30T13:10:31.129Z,28.00
2022-07-30T13:12:34.483Z,27.90
2022-07-30T13:14:37.302Z,27.90
2022-07-30T13:16:44.077Z,27.70
2022-07-30T13:18:47.095Z,27.70
2022-07-30T13:20:49.937Z,27.60
2022-07-30T13:22:52.647Z,27.60
2022-07-30T13:24:55.360Z,27.70
2022-07-30T13:26:59.460Z,27.90
2022-07-30T13:29:02.324Z,27.50
2022-07-30T13:31:07.505Z,27.40
2022-07-30T13:33:10.554Z,27.60
2022-07-30T13:35:13.326Z,27.50
2022-07-30T13:37:16.079Z,27.60
2022-07-30T13:39:18.849Z,27.50
2022-07-30T13:41:21.770Z,27.50
2022-07-30T13:43:26.041Z,27.60
2022-07-30T13:45:28.951Z,27.70
2022-07-30T13:47:31.648Z,27.60
2022-07-30T13:49:35.336Z,27.50
2022-07-30T13:51:38.431Z,27.60
2022-07-30T13:53:41.784Z,27.60
2022-07-30T13:55:46.513Z,27.60
2022-07-30T13:57:49.280Z,27.60
2022-07-30T13:59:53.385Z,27.50
2022-07-30T14:01:56.852Z,27.60
2022-07-30T14:04:00.138Z,27.60
2022-07-30T14:06:10.037Z,27.70
2022-07-30T14:08:14.194Z,27.60
2022-07-30T14:10:17.706Z,27.40
2022-07-30T14:12:20.487Z,27.40
2022-07-30T14:14:23.458Z,27.40
2022-07-30T14:18:50.247Z,27.40
2022-07-30T14:20:53.706Z,27.40
2022-07-30T14:22:56.795Z,27.40
2022-07-30T14:25:00.369Z,27.50
2022-07-30T14:27:03.492Z,27.40
2022-07-30T14:29:06.819Z,27.40
2022-07-30T14:31:09.592Z,27.40
2022-07-30T14:33:13.851Z,27.40
2022-07-30T14:35:16.799Z,27.50
2022-07-30T14:37:19.717Z,27.40
2022-07-30T14:39:22.472Z,27.30
2022-07-30T14:41:25.443Z,27.10
2022-07-30T14:43:28.219Z,27.00
2022-07-30T14:45:30.952Z,26.90
2022-07-30T14:47:33.701Z,26.90
2022-07-30T14:49:37.784Z,27.00
2022-07-30T14:51:40.506Z,27.00
2022-07-30T14:53:43.292Z,27.00
2022-07-30T14:55:50.096Z,26.90
2022-07-30T14:57:52.816Z,26.90
2022-07-30T14:59:55.576Z,26.80
2022-07-30T15:01:58.418Z,26.80
2022-07-30T15:04:01.257Z,26.80
2022-07-30T15:06:05.817Z,26.70
2022-07-30T15:08:08.727Z,26.50
2022-07-30T15:10:11.575Z,26.40
2022-07-30T15:12:26.514Z,26.40
2022-07-30T15:14:30.199Z,26.40
2022-07-30T15:16:33.708Z,26.40
2022-07-30T15:18:36.562Z,26.50
2022-07-30T15:20:39.331Z,26.50
2022-07-30T15:22:43.402Z,26.50
2022-07-30T15:24:46.193Z,26.50
2022-07-30T15:26:48.899Z,26.50
2022-07-30T15:28:51.618Z,26.60
2022-07-30T15:30:55.583Z,26.50
2022-07-30T15:32:58.403Z,26.60
2022-07-30T15:35:01.175Z,26.60
2022-07-30T15:37:05.602Z,26.50
2022-07-30T15:39:09.829Z,26.60
2022-07-30T15:41:14.015Z,26.60
2022-07-30T15:43:17.116Z,26.60
2022-07-30T15:45:20.057Z,26.70
2022-07-30T15:47:22.994Z,26.70
2022-07-30T15:49:25.760Z,26.70
2022-07-30T15:51:28.640Z,26.70
2022-07-30T15:53:31.897Z,26.60
2022-07-30T15:55:47.195Z,26.60
2022-07-30T15:57:50.488Z,26.60
2022-07-30T15:59:53.331Z,26.60
2022-07-30T16:01:56.034Z,26.60
2022-07-30T16:03:58.873Z,26.60
2022-07-30T16:06:01.757Z,26.60
2022-07-30T16:08:04.576Z,26.60
2022-07-30T16:10:07.910Z,26.60
2022-07-30T16:12:12.059Z,26.60
2022-07-30T16:14:16.251Z,26.50
2022-07-30T16:16:19.291Z,26.60
2022-07-30T16:18:22.050Z,26.50
2022-07-30T16:20:24.772Z,26.50
2022-07-30T16:22:27.514Z,26.50
2022-07-30T16:24:30.264Z,26.50
2022-07-30T16:26:33.257Z,26.60
2022-07-30T16:28:37.378Z,26.80
2022-07-30T16:30:50.386Z,27.30
2022-07-30T16:32:56.162Z,27.40
2022-07-30T16:34:59.383Z,27.30
2022-07-30T16:37:03.853Z,27.20
2022-07-30T16:39:07.223Z,27.20
2022-07-30T16:41:13.477Z,27.20
2022-07-30T16:43:20.135Z,27.20
2022-07-30T16:45:24.506Z,27.20
2022-07-30T16:47:27.387Z,27.30
2022-07-30T16:49:36.659Z,27.40
2022-07-30T16:51:39.456Z,27.50
2022-07-30T16:53:42.371Z,27.70
2022-07-30T16:55:47.592Z,27.80
2022-07-30T16:57:50.447Z,27.70
2022-07-30T16:59:53.296Z,27.70
2022-07-30T17:01:57.347Z,27.70
2022-07-30T17:04:00.152Z,27.60
2022-07-30T17:06:02.908Z,27.60
2022-07-30T17:08:06.423Z,27.50
2022-07-30T17:10:12.369Z,27.30
2022-07-30T17:12:15.587Z,27.30
2022-07-30T17:14:18.356Z,27.20
2022-07-30T17:16:21.420Z,27.20
2022-07-30T17:18:25.551Z,27.10
2022-07-30T17:20:28.622Z,27.10
2022-07-30T17:22:32.330Z,27.00
2022-07-30T17:24:35.250Z,26.90
2022-07-30T17:26:39.638Z,26.80
2022-07-30T17:28:42.586Z,26.80
2022-07-30T17:30:45.473Z,26.80
2022-07-30T17:32:48.570Z,26.70
2022-07-30T17:34:52.885Z,26.60
2022-07-30T17:36:55.784Z,26.60
2022-07-30T17:38:58.582Z,26.60
2022-07-30T17:41:01.419Z,26.60
2022-07-30T17:43:04.897Z,26.50
2022-07-30T17:45:09.195Z,26.50
2022-07-30T17:47:15.057Z,26.50
2022-07-30T17:49:24.799Z,26.40
2022-07-30T17:51:29.147Z,26.40
2022-07-30T17:53:31.996Z,26.30
2022-07-30T17:55:37.826Z,26.30
2022-07-30T17:57:40.887Z,26.20
2022-07-30T17:59:43.703Z,26.10
2022-07-30T18:01:46.614Z,26.00
2022-07-30T18:03:49.389Z,25.90
2022-07-30T18:05:54.954Z,25.90
2022-07-30T18:07:59.082Z,25.90
2022-07-30T18:10:01.957Z,25.90
2022-07-30T18:12:06.109Z,25.90
2022-07-30T18:14:09.277Z,25.90
2022-07-30T18:16:12.628Z,25.90
2022-07-30T18:18:15.687Z,25.80
2022-07-30T18:20:18.737Z,25.70
2022-07-30T18:22:29.312Z,25.70
2022-07-30T18:24:34.196Z,25.70
2022-07-30T18:26:43.689Z,25.60
2022-07-30T18:28:47.430Z,25.70
2022-07-30T18:30:50.442Z,25.70
2022-07-30T18:32:53.257Z,25.60
2022-07-30T18:34:56.315Z,25.60
2022-07-30T18:36:59.233Z,25.60
2022-07-30T18:39:02.106Z,25.60
2022-07-30T18:41:06.490Z,25.60
2022-07-30T18:43:09.273Z,25.60
2022-07-30T18:45:14.116Z,25.50
2022-07-30T18:47:18.324Z,25.40
2022-07-30T18:49:36.065Z,25.40
2022-07-30T18:51:40.135Z,25.40
2022-07-30T18:53:43.142Z,25.40
2022-07-30T18:55:46.337Z,25.40
2022-07-30T18:57:52.156Z,25.40
2022-07-30T18:59:55.520Z,25.40
2022-07-30T19:01:58.661Z,25.40
2022-07-30T19:04:01.445Z,25.40
2022-07-30T19:06:04.440Z,25.30
2022-07-30T19:08:08.335Z,25.30
2022-07-30T19:10:11.849Z,25.30
2022-07-30T19:12:14.704Z,25.20
2022-07-30T19:14:18.998Z,25.20
2022-07-30T19:16:21.857Z,25.20
2022-07-30T19:18:25.086Z,25.20
2022-07-30T19:20:28.217Z,25.10
2022-07-30T19:22:31.055Z,25.10
2022-07-30T19:24:33.886Z,25.10
2022-07-30T19:26:38.905Z,25.20
2022-07-30T19:28:41.777Z,25.20
2022-07-30T19:30:46.148Z,25.10
2022-07-30T19:32:48.999Z,25.10
2022-07-30T19:34:53.779Z,25.10
2022-07-30T19:36:56.568Z,25.00
2022-07-30T19:39:06.767Z,25.10
2022-07-30T19:41:10.281Z,25.10
2022-07-30T19:43:13.723Z,25.10
2022-07-30T19:45:16.599Z,25.10
2022-07-30T19:47:26.052Z,25.10
2022-07-30T19:49:29.591Z,25.10
2022-07-30T19:52:10.605Z,25.10
2022-07-30T19:53:55.682Z,25.10
2022-07-30T19:56:01.617Z,25.10
2022-07-30T19:58:16.212Z,25.00
2022-07-30T20:00:24.560Z,24.90
2022-07-30T20:02:35.377Z,24.90
2022-07-30T20:04:38.277Z,24.90
2022-07-30T20:06:45.955Z,24.90
2022-07-30T20:08:49.641Z,24.80
2022-07-30T20:10:52.724Z,24.80
2022-07-30T20:12:55.621Z,24.80
2022-07-30T20:14:59.940Z,24.70
2022-07-30T20:17:02.892Z,24.70
2022-07-30T20:19:07.922Z,24.80
2022-07-30T20:21:14.853Z,24.70
2022-07-30T20:23:18.572Z,24.60
2022-07-30T20:25:21.736Z,24.50
2022-07-30T20:27:36.094Z,24.50
2022-07-30T20:29:40.942Z,24.50
2022-07-30T20:31:44.641Z,24.50
2022-07-30T20:33:50.256Z,24.40
2022-07-30T20:35:55.057Z,24.40
2022-07-30T20:37:57.873Z,24.40
2022-07-30T20:40:00.669Z,24.50
2022-07-30T20:42:11.752Z,24.40
2022-07-30T20:44:15.169Z,24.30
2022-07-30T20:46:26.555Z,24.30
2022-07-30T20:48:34.676Z,24.20
2022-07-30T20:50:38.948Z,24.20
2022-07-30T20:52:46.696Z,24.20
2022-07-30T20:54:50.905Z,24.10
2022-07-30T20:56:54.099Z,24.00
2022-07-30T20:58:57.422Z,24.00
2022-07-30T21:01:00.537Z,24.00
2022-07-30T21:03:13.666Z,23.90
2022-07-30T21:05:19.795Z,23.90
2022-07-30T21:07:22.989Z,23.90
2022-07-30T21:09:52.091Z,24.00
2022-07-30T21:11:55.542Z,23.90
2022-07-30T21:13:58.517Z,23.80
2022-07-30T21:16:01.332Z,23.70
2022-07-30T21:18:05.659Z,23.70
2022-07-30T21:20:09.690Z,23.60
2022-07-30T21:22:12.552Z,23.60
2022-07-30T21:24:18.849Z,23.60
2022-07-30T21:26:23.560Z,23.50
2022-07-30T21:28:27.492Z,23.50
2022-07-30T21:30:31.029Z,23.40
2022-07-30T21:32:33.807Z,23.40
2022-07-30T21:37:00.751Z,23.30
2022-07-30T21:39:03.978Z,23.30
2022-07-30T21:41:10.917Z,23.30
2022-07-30T21:43:15.165Z,23.20
2022-07-30T21:45:37.811Z,23.20
2022-07-30T21:47:47.545Z,23.10
2022-07-30T21:49:50.902Z,23.10
2022-07-30T21:51:55.948Z,23.20
2022-07-30T21:53:58.784Z,23.10
2022-07-30T21:56:01.659Z,23.10
2022-07-30T21:58:04.719Z,23.00
2022-07-30T22:00:15.425Z,22.90
2022-07-30T22:02:19.029Z,22.90
2022-07-30T22:04:22.607Z,22.80
2022-07-30T22:06:25.551Z,22.70
2022-07-30T22:08:28.530Z,22.80
2022-07-30T22:10:35.363Z,22.80
2022-07-30T22:12:38.844Z,22.60
2022-07-30T22:14:41.686Z,22.60
2022-07-30T22:16:46.304Z,22.50
2022-07-30T22:18:49.436Z,22.50
2022-07-30T22:20:52.956Z,22.40
2022-07-30T22:22:56.146Z,22.40
2022-07-30T22:24:59.953Z,22.40
2022-07-30T22:27:10.769Z,22.40
2022-07-30T22:29:17.362Z,22.40
2022-07-30T22:31:21.592Z,22.50
2022-07-30T22:33:26.283Z,22.50
2022-07-30T22:35:32.194Z,22.40
2022-07-30T22:37:37.128Z,22.40
2022-07-30T22:39:50.246Z,22.40
2022-07-30T22:41:54.408Z,22.40
2022-07-30T22:43:57.484Z,22.30
2022-07-30T22:46:01.220Z,22.30
2022-07-30T22:48:10.060Z,22.20
2022-07-30T22:50:17.500Z,22.20
2022-07-30T22:52:27.408Z,22.20
2022-07-30T22:54:31.764Z,22.20
2022-07-30T22:56:34.495Z,22.20
2022-07-30T22:58:37.254Z,22.20
2022-07-30T23:00:40.698Z,22.20
2022-07-30T23:02:44.414Z,22.10
2022-07-30T23:04:48.365Z,22.10
2022-07-30T23:06:53.832Z,22.10
2022-07-30T23:08:57.162Z,22.10
2022-07-30T23:11:00.924Z,22.10
2022-07-30T23:12:27.492Z,23.30
2022-07-30T23:13:04.090Z,22.10
2022-07-30T23:15:09.010Z,22.10
2022-07-30T23:17:12.570Z,22.00
2022-07-30T23:19:22.100Z,22.00
2022-07-30T23:21:25.305Z,22.00
2022-07-30T23:23:30.996Z,21.90
2022-07-30T23:25:38.961Z,21.90
2022-07-30T23:27:42.616Z,21.90
2022-07-30T23:29:45.392Z,21.90
2022-07-30T23:31:48.174Z,21.80
2022-07-30T23:33:50.985Z,21.80
2022-07-30T23:35:53.789Z,21.80
2022-07-30T23:37:57.330Z,21.80
2022-07-30T23:40:01.439Z,21.80
2022-07-30T23:42:04.258Z,21.70
2022-07-30T23:44:07.056Z,21.70
2022-07-30T23:46:09.793Z,21.70
2022-07-30T23:48:14.975Z,21.80
2022-07-30T23:50:18.669Z,21.70
2022-07-30T23:52:21.392Z,21.70
2022-07-30T23:54:24.167Z,21.60
2022-07-30T23:56:28.200Z,21.50
2022-07-30T23:58:31.243Z,21.50
